Time;durP1;ratioP1;P1;durP2;ratioP2;P2;SDS_P1;SDS_P2;PMS_P1;PMS_P2;Temp;Humidity;BMP_temperature;BMP_pressure;BME280_temperature;BME280_humidity;BME280_pressure;Samples;Min_cycle;Max_cycle;Signal;HPM_P1;HPM_P2
2021/01/03 00:00:12;;;;;;;78.78;43.38;;;3.50;91.80;;;;;;2065008;28;20663;-72
2021/01/03 00:01:14;;;;;;;75.45;42.67;;;3.50;91.80;;;;;;2064964;28;20486;-71
2021/01/03 00:02:15;;;;;;;78.18;43.33;;;3.50;91.90;;;;;;2072257;28;20509;-71
2021/01/03 00:03:16;;;;;;;78.45;42.97;;;3.40;92.00;;;;;;2072519;28;20105;-71
2021/01/03 00:04:17;;;;;;;84.75;45.15;;;3.50;92.00;;;;;;2064792;28;20034;-72
2021/01/03 00:05:22;;;;;;;80.10;43.70;;;3.40;92.00;;;;;;2064835;28;20022;-71
2021/01/03 00:06:23;;;;;;;75.05;42.92;;;3.40;91.90;;;;;;2064643;28;20026;-71
2021/01/03 00:07:24;;;;;;;78.82;43.00;;;3.40;92.00;;;;;;2064264;28;20034;-70
2021/01/03 00:08:27;;;;;;;82.25;43.95;;;3.40;92.10;;;;;;2064099;28;20044;-70
2021/01/03 00:09:28;;;;;;;76.47;43.15;;;3.50;92.10;;;;;;2064170;28;20037;-70
2021/01/03 00:10:29;;;;;;;83.78;44.67;;;3.50;92.20;;;;;;2064874;28;20669;-70
2021/01/03 00:11:30;;;;;;;84.70;45.45;;;3.50;92.10;;;;;;2064112;28;20500;-72
2021/01/03 00:12:30;;;;;;;83.47;44.58;;;3.50;91.80;;;;;;2064204;28;20066;-70
2021/01/03 00:13:31;;;;;;;80.13;43.60;;;3.50;91.80;;;;;;2064909;28;20026;-70
2021/01/03 00:14:32;;;;;;;80.57;44.80;;;3.50;91.80;;;;;;2064681;28;20034;-70
2021/01/03 00:15:32;;;;;;;83.93;46.53;;;3.50;91.80;;;;;;2064901;28;20536;-71
2021/01/03 00:16:33;;;;;;;80.25;44.50;;;3.50;91.80;;;;;;2063973;28;20540;-71
2021/01/03 00:17:34;;;;;;;84.85;45.75;;;3.50;91.60;;;;;;2063594;28;20038;-70
2021/01/03 00:18:35;;;;;;;82.47;44.80;;;3.50;91.60;;;;;;2063973;28;20034;-71
2021/01/03 00:19:35;;;;;;;83.88;45.25;;;3.50;91.50;;;;;;2064788;28;20031;-70
2021/01/03 00:20:37;;;;;;;88.07;46.25;;;3.50;91.50;;;;;;2064396;28;20034;-70
2021/01/03 00:21:38;;;;;;;85.55;46.15;;;3.50;91.60;;;;;;2064486;28;20014;-70
2021/01/03 00:22:39;;;;;;;84.93;45.45;;;3.40;91.60;;;;;;2064487;28;20502;-70
2021/01/03 00:23:40;;;;;;;80.50;44.70;;;3.50;91.60;;;;;;2064382;28;20058;-71
2021/01/03 00:24:40;;;;;;;84.97;45.22;;;3.50;91.50;;;;;;2064319;28;20106;-71
2021/01/03 00:25:41;;;;;;;85.03;44.95;;;3.50;91.40;;;;;;2064636;28;20018;-70
2021/01/03 00:26:42;;;;;;;82.40;44.75;;;3.50;91.50;;;;;;2064121;28;20110;-70
2021/01/03 00:27:43;;;;;;;85.13;45.22;;;3.50;91.60;;;;;;2063826;28;20081;-69
2021/01/03 00:28:44;;;;;;;82.47;44.42;;;3.50;91.60;;;;;;2074134;28;20104;-71
2021/01/03 00:29:45;;;;;;;82.72;44.78;;;3.50;91.60;;;;;;2074278;28;20038;-71
2021/01/03 00:30:45;;;;;;;79.68;42.85;;;3.50;91.50;;;;;;2066016;28;20022;-71
2021/01/03 00:31:48;;;;;;;80.03;42.75;;;3.40;91.50;;;;;;2064479;28;20030;-70
2021/01/03 00:32:49;;;;;;;80.68;43.55;;;3.40;91.60;;;;;;2061865;28;20026;-71
2021/01/03 00:33:51;;;;;;;79.03;43.55;;;3.40;91.70;;;;;;2063825;28;20049;-70
2021/01/03 00:34:51;;;;;;;76.93;42.20;;;3.40;91.70;;;;;;2063916;28;20027;-71
2021/01/03 00:35:52;;;;;;;78.53;43.67;;;3.40;91.70;;;;;;2064672;28;20446;-70
2021/01/03 00:36:53;;;;;;;82.03;44.33;;;3.40;91.70;;;;;;2064175;28;20029;-70
2021/01/03 00:37:57;;;;;;;83.90;44.78;;;3.40;91.70;;;;;;2063456;28;20031;-70
2021/01/03 00:38:58;;;;;;;81.85;43.55;;;3.50;92.00;;;;;;2064283;28;20042;-71
2021/01/03 00:39:59;;;;;;;84.82;45.40;;;3.50;91.50;;;;;;2064373;28;20025;-70
2021/01/03 00:41:00;;;;;;;81.95;44.38;;;3.50;91.50;;;;;;2063915;28;20572;-71
2021/01/03 00:42:00;;;;;;;80.40;43.50;;;3.50;91.40;;;;;;2063729;28;20026;-71
2021/01/03 00:43:02;;;;;;;78.13;43.50;;;3.40;91.50;;;;;;2056552;28;20034;-71
2021/01/03 00:44:04;;;;;;;75.32;42.25;;;3.40;91.60;;;;;;2057043;28;20427;-71
2021/01/03 00:45:07;;;;;;;83.43;45.38;;;3.40;91.60;;;;;;2057593;28;20023;-72
2021/01/03 00:46:08;;;;;;;83.82;44.03;;;3.40;91.70;;;;;;2057069;28;20015;-71
2021/01/03 00:47:09;;;;;;;83.88;44.47;;;3.40;91.70;;;;;;2057253;28;20027;-71
2021/01/03 00:48:11;;;;;;;76.57;41.97;;;3.40;91.80;;;;;;2057443;28;20034;-72
2021/01/03 00:49:12;;;;;;;76.82;42.85;;;3.40;91.80;;;;;;2056675;28;20018;-70
2021/01/03 00:50:13;;;;;;;78.65;43.35;;;3.40;91.80;;;;;;2056651;28;20035;-71
2021/01/03 00:51:14;;;;;;;82.13;44.13;;;3.40;91.90;;;;;;2056704;28;20031;-71
2021/01/03 00:52:15;;;;;;;81.72;43.05;;;3.40;91.80;;;;;;2057331;28;20058;-70
2021/01/03 00:53:15;;;;;;;76.75;41.78;;;3.40;91.90;;;;;;2057486;28;20030;-70
2021/01/03 00:54:16;;;;;;;79.93;43.33;;;3.40;91.90;;;;;;2056820;28;20105;-71
2021/01/03 00:55:18;;;;;;;81.57;42.50;;;3.40;91.80;;;;;;2056287;28;20050;-70
2021/01/03 00:56:18;;;;;;;78.40;42.88;;;3.40;91.70;;;;;;2056240;28;20053;-71
2021/01/03 00:57:19;;;;;;;82.35;43.58;;;3.40;91.80;;;;;;2055808;28;20121;-70
2021/01/03 00:58:20;;;;;;;79.32;42.20;;;3.40;91.70;;;;;;2056207;28;20027;-70
2021/01/03 00:59:20;;;;;;;76.20;41.63;;;3.40;91.80;;;;;;2056262;28;20031;-70
2021/01/03 01:00:28;;;;;;;76.32;40.80;;;3.40;91.90;;;;;;2056342;28;20098;-71
2021/01/03 01:01:29;;;;;;;81.05;42.75;;;3.40;91.80;;;;;;2056243;28;20023;-70
2021/01/03 01:02:29;;;;;;;79.90;43.25;;;3.40;91.80;;;;;;2056337;28;20502;-70
2021/01/03 01:03:30;;;;;;;82.47;43.70;;;3.40;91.80;;;;;;2056180;28;20077;-70
2021/01/03 01:04:31;;;;;;;79.15;42.85;;;3.40;91.90;;;;;;2056154;28;20033;-70
2021/01/03 01:05:31;;;;;;;81.05;43.90;;;3.40;91.90;;;;;;2055720;28;20438;-70
2021/01/03 01:06:32;;;;;;;84.32;44.38;;;3.40;91.90;;;;;;2056465;28;20554;-70
2021/01/03 01:07:33;;;;;;;80.25;43.63;;;3.50;92.00;;;;;;2063940;28;20026;-70
2021/01/03 01:08:35;;;;;;;83.18;43.45;;;3.50;91.90;;;;;;2057005;28;20034;-72
2021/01/03 01:09:36;;;;;;;80.03;43.45;;;3.50;91.80;;;;;;2056268;28;20042;-71
2021/01/03 01:10:36;;;;;;;84.90;45.03;;;3.50;91.80;;;;;;2063599;28;20038;-71
2021/01/03 01:11:39;;;;;;;77.30;43.00;;;3.50;91.70;;;;;;2063764;28;20093;-71
2021/01/03 01:12:40;;;;;;;82.93;43.40;;;3.40;91.70;;;;;;2055843;28;20399;-70
2021/01/03 01:13:41;;;;;;;80.15;43.47;;;3.40;91.80;;;;;;2055824;28;20133;-71
2021/01/03 01:14:41;;;;;;;85.90;44.72;;;3.40;91.90;;;;;;2056287;28;20101;-70
2021/01/03 01:15:42;;;;;;;84.72;44.15;;;3.40;91.80;;;;;;2056307;28;20041;-71
2021/01/03 01:16:43;;;;;;;80.18;43.20;;;3.40;91.70;;;;;;2056348;28;20398;-72
2021/01/03 01:17:45;;;;;;;88.70;45.72;;;3.40;91.70;;;;;;2055833;28;20035;-70
2021/01/03 01:18:46;;;;;;;85.13;45.15;;;3.50;91.70;;;;;;2056316;28;20050;-70
2021/01/03 01:19:46;;;;;;;84.95;45.50;;;3.40;92.00;;;;;;2056246;28;20192;-71
2021/01/03 01:20:47;;;;;;;85.78;45.70;;;3.40;91.80;;;;;;2056220;28;20030;-71
2021/01/03 01:21:48;;;;;;;82.53;44.97;;;3.40;91.90;;;;;;2056383;28;20042;-71
2021/01/03 01:22:49;;;;;;;85.68;44.20;;;3.40;92.00;;;;;;2056319;28;20026;-71
2021/01/03 01:23:49;;;;;;;90.95;46.45;;;3.30;92.00;;;;;;2056311;28;20035;-71
2021/01/03 01:24:50;;;;;;;85.13;46.05;;;3.30;92.10;;;;;;2056184;28;20031;-70
2021/01/03 01:25:51;;;;;;;84.95;46.15;;;3.30;92.20;;;;;;2056232;28;20078;-70
2021/01/03 01:26:51;;;;;;;81.82;44.25;;;3.30;92.70;;;;;;2063387;28;20536;-70
2021/01/03 01:27:53;;;;;;;83.72;45.13;;;3.30;92.40;;;;;;2067820;28;20023;-70
2021/01/03 01:28:54;;;;;;;83.60;44.72;;;3.20;92.30;;;;;;2064303;28;20497;-70
2021/01/03 01:29:54;;;;;;;87.30;44.83;;;3.20;92.40;;;;;;2063559;28;20045;-69
2021/01/03 01:30:56;;;;;;;84.80;45.05;;;3.10;92.50;;;;;;2063546;28;20018;-72
2021/01/03 01:31:57;;;;;;;84.65;44.97;;;3.10;92.70;;;;;;2064298;28;20030;-72
2021/01/03 01:32:58;;;;;;;90.13;46.15;;;3.10;92.90;;;;;;2064213;28;20379;-70
2021/01/03 01:33:59;;;;;;;88.80;46.00;;;3.10;93.00;;;;;;2064249;28;20030;-71
2021/01/03 01:35:00;;;;;;;87.15;46.67;;;3.10;93.00;;;;;;2064131;28;20038;-69
2021/01/03 01:36:01;;;;;;;89.30;46.42;;;3.10;93.10;;;;;;2064504;28;20019;-70
2021/01/03 01:37:01;;;;;;;85.97;45.40;;;3.10;93.10;;;;;;2064251;28;20022;-71
2021/01/03 01:38:04;;;;;;;87.63;46.33;;;3.10;93.10;;;;;;2063878;28;20034;-70
2021/01/03 01:39:04;;;;;;;89.95;47.72;;;3.00;93.20;;;;;;2064263;28;20080;-70
2021/01/03 01:40:08;;;;;;;92.03;47.53;;;3.00;93.40;;;;;;2064475;28;20089;-70
2021/01/03 01:41:08;;;;;;;94.68;48.60;;;3.00;93.90;;;;;;2064350;28;20022;-71
2021/01/03 01:42:09;;;;;;;93.00;49.05;;;3.00;93.60;;;;;;2064444;28;20096;-70
2021/01/03 01:43:13;;;;;;;89.70;47.72;;;3.00;93.60;;;;;;2064518;28;20804;-70
2021/01/03 01:44:14;;;;;;;98.00;50.60;;;3.00;93.70;;;;;;2064403;28;20046;-70
2021/01/03 01:45:18;;;;;;;94.28;48.42;;;2.90;93.70;;;;;;2064333;28;20030;-70
2021/01/03 01:46:32;;;;;;;93.32;47.88;;;2.90;93.90;;;;;;2063632;28;20129;-70
2021/01/03 01:47:35;;;;;;;94.90;47.75;;;2.90;94.10;;;;;;2063937;28;20039;-70
2021/01/03 01:48:39;;;;;;;95.13;49.58;;;2.90;94.10;;;;;;2064939;28;20031;-71
2021/01/03 01:49:42;;;;;;;94.93;48.80;;;2.90;94.10;;;;;;2064674;28;20034;-70
2021/01/03 01:50:47;;;;;;;93.22;47.95;;;2.90;94.00;;;;;;2064340;28;20027;-70
2021/01/03 01:51:51;;;;;;;95.03;48.88;;;2.90;94.00;;;;;;2064210;28;20030;-70
2021/01/03 01:52:54;;;;;;;92.82;47.60;;;2.90;94.10;;;;;;2064049;28;20054;-69
2021/01/03 01:54:01;;;;;;;97.57;50.25;;;2.90;94.10;;;;;;2064326;28;20034;-69
2021/01/03 01:55:07;;;;;;;91.90;47.88;;;2.80;94.20;;;;;;2064071;28;20038;-70
2021/01/03 01:56:28;;;;;;;93.72;48.08;;;2.90;94.30;;;;;;2071441;28;20105;-70
2021/01/03 01:57:40;;;;;;;100.22;49.90;;;2.80;94.40;;;;;;2068423;28;20030;-69
2021/01/03 01:59:16;;;;;;;102.72;50.20;;;2.80;94.40;;;;;;2064028;28;20058;-70
2021/01/03 02:00:21;;;;;;;100.82;48.90;;;2.80;94.30;;;;;;2033739;28;20051;-71
2021/01/03 02:01:30;;;;;;;109.32;52.55;;;2.80;94.40;;;;;;2064227;28;20035;-70
2021/01/03 02:02:38;;;;;;;107.13;51.65;;;2.80;94.60;;;;;;2065227;28;20448;-71
2021/01/03 02:04:01;;;;;;;106.38;52.47;;;2.70;94.60;;;;;;2066061;28;20042;-71
2021/01/03 02:05:26;;;;;;;101.88;51.50;;;2.80;94.60;;;;;;2065755;28;20029;-70
2021/01/03 02:06:37;;;;;;;98.43;49.53;;;2.70;94.60;;;;;;2065444;28;20061;-72
2021/01/03 02:07:44;;;;;;;95.88;49.38;;;2.70;94.70;;;;;;2065249;28;20033;-71
2021/01/03 02:08:52;;;;;;;104.40;52.45;;;2.70;94.70;;;;;;2065761;28;20032;-72
2021/01/03 02:10:23;;;;;;;107.45;53.45;;;2.70;94.80;;;;;;2073190;28;20026;-71
2021/01/03 02:11:26;;;;;;;103.38;52.25;;;2.70;94.70;;;;;;2069769;28;20034;-71
2021/01/03 02:12:41;;;;;;;104.95;51.63;;;2.70;94.80;;;;;;2066309;28;20057;-71
2021/01/03 02:13:47;;;;;;;101.15;52.08;;;2.60;94.70;;;;;;2066198;28;20030;-71
2021/01/03 02:14:48;;;;;;;99.93;51.75;;;2.70;94.80;;;;;;2065706;28;20038;-72
2021/01/03 02:15:51;;;;;;;101.65;52.35;;;2.70;94.90;;;;;;2065696;28;20033;-71
2021/01/03 02:16:52;;;;;;;102.60;50.88;;;2.60;94.90;;;;;;2065687;28;20041;-73
2021/01/03 02:17:54;;;;;;;96.68;50.25;;;2.60;94.90;;;;;;2065871;28;20053;-71
2021/01/03 02:18:55;;;;;;;97.43;51.45;;;2.70;95.10;;;;;;2066284;28;20022;-71
2021/01/03 02:19:58;;;;;;;100.28;51.03;;;2.70;95.00;;;;;;2066645;28;20121;-72
2021/01/03 02:21:14;;;;;;;97.15;50.35;;;2.70;95.10;;;;;;2066825;28;20085;-72
2021/01/03 02:22:24;;;;;;;100.78;50.35;;;2.70;95.10;;;;;;2066936;28;20038;-71
2021/01/03 02:23:55;;;;;;;98.68;49.88;;;2.70;95.10;;;;;;2066953;28;20114;-72
2021/01/03 02:25:07;;;;;;;104.95;52.53;;;2.70;95.00;;;;;;2060040;28;20030;-71
2021/01/03 02:26:09;;;;;;;105.93;53.00;;;2.70;94.90;;;;;;2066753;28;20034;-71
2021/01/03 02:27:30;;;;;;;103.28;51.15;;;2.70;94.90;;;;;;2066133;28;20126;-70
2021/01/03 02:28:37;;;;;;;100.60;51.20;;;2.70;95.00;;;;;;2057770;28;20034;-71
2021/01/03 02:29:38;;;;;;;104.47;51.13;;;2.70;95.00;;;;;;2057663;28;20442;-70
2021/01/03 02:30:42;;;;;;;99.85;50.20;;;2.60;94.90;;;;;;2057559;28;20081;-71
2021/01/03 02:31:48;;;;;;;98.10;49.85;;;2.60;94.90;;;;;;2057473;28;20410;-71
2021/01/03 02:33:01;;;;;;;104.05;52.65;;;2.60;94.90;;;;;;2057569;28;20121;-71
2021/01/03 02:34:06;;;;;;;102.13;51.25;;;2.60;95.00;;;;;;2057558;28;20034;-71
2021/01/03 02:35:08;;;;;;;98.80;50.70;;;2.60;95.10;;;;;;2057398;28;20098;-71
2021/01/03 02:36:33;;;;;;;97.57;50.88;;;2.60;95.10;;;;;;2057160;28;20030;-71
2021/01/03 02:37:42;;;;;;;94.88;48.65;;;2.60;95.10;;;;;;2056516;28;20039;-71
2021/01/03 02:39:05;;;;;;;101.35;51.10;;;2.60;95.10;;;;;;2057404;28;20045;-71
2021/01/03 02:40:12;;;;;;;96.55;49.85;;;2.60;95.20;;;;;;2057470;28;20058;-71
2021/01/03 02:41:16;;;;;;;98.18;49.80;;;2.60;95.20;;;;;;2057357;28;20038;-70
2021/01/03 02:42:22;;;;;;;95.68;49.15;;;2.60;95.20;;;;;;2057430;28;20019;-71
2021/01/03 02:43:23;;;;;;;96.35;50.13;;;2.60;95.30;;;;;;2058068;28;20035;-71
2021/01/03 02:44:24;;;;;;;93.95;50.58;;;2.70;95.40;;;;;;2057859;28;20058;-71
2021/01/03 02:45:29;;;;;;;98.55;50.63;;;2.70;95.40;;;;;;2057582;28;20102;-71
2021/01/03 02:46:29;;;;;;;95.18;49.75;;;2.70;95.40;;;;;;2057639;28;20034;-73
2021/01/03 02:47:34;;;;;;;97.10;50.78;;;2.70;95.40;;;;;;2057220;28;20023;-71
2021/01/03 02:48:35;;;;;;;96.20;50.60;;;2.70;95.50;;;;;;2057362;28;20031;-71
2021/01/03 02:49:36;;;;;;;96.97;51.30;;;2.70;95.40;;;;;;2057256;28;20486;-71
2021/01/03 02:50:37;;;;;;;101.55;50.70;;;2.80;95.40;;;;;;2057484;28;20039;-71
2021/01/03 02:51:39;;;;;;;96.63;50.90;;;2.70;95.40;;;;;;2057388;28;20046;-71
2021/01/03 02:52:42;;;;;;;93.78;50.35;;;2.70;95.30;;;;;;2057407;28;20054;-73
2021/01/03 02:53:43;;;;;;;93.80;50.08;;;2.70;95.40;;;;;;2057266;28;20031;-70
2021/01/03 02:54:43;;;;;;;94.93;49.55;;;2.70;95.40;;;;;;2064677;28;20433;-72
2021/01/03 02:55:44;;;;;;;96.53;49.22;;;2.70;95.40;;;;;;2064623;28;20746;-72
2021/01/03 02:56:45;;;;;;;97.43;49.13;;;2.70;95.40;;;;;;2056485;28;20038;-72
2021/01/03 02:57:46;;;;;;;94.60;49.35;;;2.70;95.40;;;;;;2056815;28;20038;-73
2021/01/03 02:58:47;;;;;;;93.43;47.85;;;2.60;95.30;;;;;;2057361;28;20046;-71
2021/01/03 02:59:48;;;;;;;100.13;50.58;;;2.60;95.30;;;;;;2064764;28;20699;-71
2021/01/03 03:00:48;;;;;;;96.53;49.22;;;2.60;95.40;;;;;;2064699;28;20447;-70
2021/01/03 03:01:49;;;;;;;96.75;49.63;;;2.50;95.50;;;;;;2064640;28;20048;-70
2021/01/03 03:02:50;;;;;;;94.63;48.88;;;2.50;95.90;;;;;;2064615;28;20031;-70
2021/01/03 03:03:50;;;;;;;95.72;49.47;;;2.50;95.60;;;;;;2057266;28;20058;-70
2021/01/03 03:04:51;;;;;;;96.97;50.08;;;2.50;95.60;;;;;;2057207;28;20509;-70
2021/01/03 03:05:52;;;;;;;95.13;48.88;;;2.50;95.60;;;;;;2057467;28;20495;-71
2021/01/03 03:06:52;;;;;;;94.95;48.97;;;2.50;95.60;;;;;;2057148;28;20031;-70
2021/01/03 03:07:53;;;;;;;95.72;49.75;;;2.50;95.70;;;;;;2056756;28;20029;-70
2021/01/03 03:08:54;;;;;;;91.82;48.17;;;2.40;95.60;;;;;;2064538;28;20120;-70
2021/01/03 03:09:54;;;;;;;96.55;49.05;;;2.40;95.60;;;;;;2064605;28;20072;-70
2021/01/03 03:10:55;;;;;;;92.95;47.88;;;2.40;95.60;;;;;;2057103;28;20022;-71
2021/01/03 03:11:56;;;;;;;93.45;47.45;;;2.30;95.60;;;;;;2057242;28;20080;-71
2021/01/03 03:13:00;;;;;;;86.38;45.72;;;2.30;95.70;;;;;;2057187;28;20038;-71
2021/01/03 03:14:00;;;;;;;91.85;48.15;;;2.30;95.80;;;;;;2056270;28;20130;-70
2021/01/03 03:15:07;;;;;;;90.15;47.35;;;2.20;95.80;;;;;;2056965;28;20031;-71
2021/01/03 03:16:07;;;;;;;92.35;47.72;;;2.20;95.80;;;;;;2057011;28;20501;-71
2021/01/03 03:17:08;;;;;;;95.22;48.17;;;2.20;96.20;;;;;;2056696;28;20029;-71
2021/01/03 03:18:09;;;;;;;90.70;47.20;;;2.20;95.90;;;;;;2056463;28;20038;-71
2021/01/03 03:19:09;;;;;;;90.18;47.92;;;2.20;95.90;;;;;;2056418;28;20035;-71
2021/01/03 03:20:11;;;;;;;92.25;47.58;;;2.20;95.90;;;;;;2057086;28;20037;-71
2021/01/03 03:21:18;;;;;;;90.65;46.88;;;2.20;96.00;;;;;;2057114;28;20041;-71
2021/01/03 03:22:18;;;;;;;90.20;47.80;;;2.10;96.00;;;;;;2057141;28;20740;-70
2021/01/03 03:23:19;;;;;;;91.20;47.60;;;2.10;96.10;;;;;;2057224;28;20038;-73
2021/01/03 03:24:20;;;;;;;91.95;48.08;;;2.20;96.10;;;;;;2056554;28;20077;-71
2021/01/03 03:25:22;;;;;;;91.63;48.60;;;2.10;96.10;;;;;;2056504;28;20050;-71
2021/01/03 03:26:22;;;;;;;93.47;47.67;;;2.10;96.20;;;;;;2056864;28;20038;-71
2021/01/03 03:27:23;;;;;;;91.18;47.83;;;2.10;96.20;;;;;;2057533;28;20030;-71
2021/01/03 03:28:24;;;;;;;95.53;49.33;;;2.10;96.20;;;;;;2065070;28;20018;-71
2021/01/03 03:29:25;;;;;;;92.10;47.67;;;2.10;96.30;;;;;;2065144;28;20367;-71
2021/01/03 03:30:26;;;;;;;92.55;48.72;;;2.10;96.30;;;;;;2065188;28;20100;-71
2021/01/03 03:31:28;;;;;;;91.20;48.13;;;2.10;96.30;;;;;;2065021;28;20034;-71
2021/01/03 03:32:29;;;;;;;92.32;48.55;;;2.10;96.40;;;;;;2065121;28;20054;-71
2021/01/03 03:33:29;;;;;;;90.97;48.20;;;2.10;96.40;;;;;;2065080;28;20026;-71
2021/01/03 03:34:30;;;;;;;90.78;48.35;;;2.10;96.50;;;;;;2065123;28;20092;-71
2021/01/03 03:35:35;;;;;;;91.63;47.17;;;2.10;96.50;;;;;;2065089;28;20034;-71
2021/01/03 03:36:36;;;;;;;92.18;47.70;;;2.10;96.50;;;;;;2072371;28;20149;-71
2021/01/03 03:37:39;;;;;;;94.80;48.13;;;2.10;96.50;;;;;;2072060;28;20092;-71
2021/01/03 03:38:40;;;;;;;97.15;48.65;;;2.10;96.50;;;;;;2065058;28;20045;-70
2021/01/03 03:39:40;;;;;;;94.63;47.92;;;2.10;96.40;;;;;;2065008;28;20105;-71
2021/01/03 03:40:41;;;;;;;98.40;50.17;;;2.10;96.40;;;;;;2065115;28;20034;-70
2021/01/03 03:41:42;;;;;;;95.00;49.15;;;2.10;96.40;;;;;;2065017;28;20076;-71
2021/01/03 03:42:43;;;;;;;92.78;48.53;;;2.10;96.40;;;;;;2065260;28;20027;-71
2021/01/03 03:43:43;;;;;;;93.22;48.38;;;2.10;96.40;;;;;;2065028;28;20041;-71
2021/01/03 03:44:44;;;;;;;97.97;50.47;;;2.10;96.40;;;;;;2072525;28;20096;-71
2021/01/03 03:45:45;;;;;;;95.03;50.60;;;2.20;96.40;;;;;;2064305;28;20085;-70
2021/01/03 03:46:53;;;;;;;100.32;50.90;;;2.10;96.40;;;;;;2064331;28;20105;-71
2021/01/03 03:47:54;;;;;;;97.13;49.80;;;2.10;96.40;;;;;;2064463;28;20386;-71
2021/01/03 03:48:55;;;;;;;96.45;49.97;;;2.10;96.40;;;;;;2064396;28;20069;-71
2021/01/03 03:49:56;;;;;;;99.57;51.55;;;2.10;96.40;;;;;;2064452;28;20026;-71
2021/01/03 03:50:57;;;;;;;93.25;49.47;;;2.10;96.40;;;;;;2065059;28;20692;-71
2021/01/03 03:51:59;;;;;;;97.63;50.55;;;2.10;96.50;;;;;;2064923;28;20026;-70
2021/01/03 03:53:00;;;;;;;93.18;49.53;;;2.10;96.50;;;;;;2072473;28;20029;-71
2021/01/03 03:54:01;;;;;;;96.50;50.10;;;2.10;96.50;;;;;;2072380;28;20057;-70
2021/01/03 03:55:02;;;;;;;97.45;50.13;;;2.10;96.50;;;;;;2064814;28;20030;-71
2021/01/03 03:56:02;;;;;;;94.72;48.95;;;2.10;96.50;;;;;;2064680;28;20034;-71
2021/01/03 03:57:05;;;;;;;100.22;51.83;;;2.10;96.60;;;;;;2065083;28;20097;-71
2021/01/03 03:58:06;;;;;;;97.70;49.53;;;2.10;96.60;;;;;;2064910;28;20123;-70
2021/01/03 03:59:07;;;;;;;97.03;50.05;;;2.10;96.60;;;;;;2064173;28;20069;-70
2021/01/03 04:00:13;;;;;;;98.50;50.35;;;2.10;96.60;;;;;;2064297;28;20026;-70
2021/01/03 04:01:14;;;;;;;93.57;49.08;;;2.10;96.60;;;;;;2064820;28;20026;-71
2021/01/03 04:02:14;;;;;;;91.82;48.58;;;2.10;96.70;;;;;;2064881;28;20045;-71
2021/01/03 04:03:20;;;;;;;96.45;49.78;;;2.10;96.70;;;;;;2064765;28;20126;-71
2021/01/03 04:04:21;;;;;;;95.03;49.38;;;2.10;96.70;;;;;;2064802;28;20367;-70
2021/01/03 04:05:24;;;;;;;97.25;49.80;;;2.10;96.70;;;;;;2064784;28;20113;-71
2021/01/03 04:06:26;;;;;;;97.75;49.40;;;2.10;96.70;;;;;;2064596;28;20100;-71
2021/01/03 04:07:27;;;;;;;96.97;50.33;;;2.10;96.70;;;;;;2064426;28;20101;-71
2021/01/03 04:08:28;;;;;;;95.95;50.45;;;2.10;96.70;;;;;;2064934;28;20042;-71
2021/01/03 04:09:28;;;;;;;96.85;49.88;;;2.00;96.60;;;;;;2064777;28;20398;-71
2021/01/03 04:10:30;;;;;;;93.68;49.13;;;2.00;96.60;;;;;;2064829;28;20054;-70
2021/01/03 04:11:31;;;;;;;99.03;49.22;;;2.00;96.70;;;;;;2064713;28;20038;-71
2021/01/03 04:12:32;;;;;;;97.35;50.15;;;2.00;96.70;;;;;;2064809;28;20122;-71
2021/01/03 04:13:33;;;;;;;98.68;50.80;;;2.00;96.70;;;;;;2064824;28;20034;-71
2021/01/03 04:14:33;;;;;;;95.68;50.22;;;2.00;96.70;;;;;;2064505;28;20038;-71
2021/01/03 04:15:34;;;;;;;98.68;50.75;;;2.00;96.70;;;;;;2064638;28;20033;-72
2021/01/03 04:16:35;;;;;;;98.40;49.83;;;2.00;96.80;;;;;;2064461;28;20030;-71
2021/01/03 04:17:36;;;;;;;96.57;50.15;;;2.00;96.80;;;;;;2064168;28;20029;-71
2021/01/03 04:18:37;;;;;;;96.97;51.00;;;2.00;96.80;;;;;;2064832;28;20049;-71
2021/01/03 04:19:37;;;;;;;95.38;49.25;;;2.00;96.90;;;;;;2064709;28;20496;-71
2021/01/03 04:20:39;;;;;;;98.00;50.38;;;2.00;96.90;;;;;;2064708;28;20387;-71
2021/01/03 04:21:40;;;;;;;92.88;50.05;;;2.00;96.90;;;;;;2064668;28;20026;-71
2021/01/03 04:22:41;;;;;;;100.53;51.28;;;2.00;96.90;;;;;;2064633;28;20026;-70
2021/01/03 04:23:42;;;;;;;95.22;50.25;;;2.00;96.90;;;;;;2064747;28;20489;-71
2021/01/03 04:24:42;;;;;;;99.80;50.78;;;2.00;96.90;;;;;;2064780;28;20040;-71
2021/01/03 04:25:43;;;;;;;99.60;50.92;;;2.00;97.00;;;;;;2064789;28;20027;-71
2021/01/03 04:26:53;;;;;;;96.32;51.28;;;2.00;96.90;;;;;;2064507;28;20111;-70
2021/01/03 04:27:54;;;;;;;102.27;51.30;;;2.00;97.00;;;;;;2064317;28;20018;-71
2021/01/03 04:28:55;;;;;;;96.35;50.97;;;2.00;96.90;;;;;;2064758;28;20340;-71
2021/01/03 04:29:56;;;;;;;102.82;52.28;;;2.00;96.90;;;;;;2064669;28;20026;-71
2021/01/03 04:30:57;;;;;;;98.00;51.15;;;2.00;97.00;;;;;;2064755;28;20053;-70
2021/01/03 04:32:06;;;;;;;95.63;50.40;;;2.00;97.00;;;;;;2063994;28;20030;-71
2021/01/03 04:33:07;;;;;;;98.55;51.70;;;2.00;97.00;;;;;;2064569;28;20026;-71
2021/01/03 04:34:08;;;;;;;98.85;51.78;;;2.00;97.00;;;;;;2064848;28;20038;-71
2021/01/03 04:35:09;;;;;;;104.03;52.47;;;2.10;97.00;;;;;;2064634;28;20022;-71
2021/01/03 04:36:15;;;;;;;94.45;50.33;;;2.10;97.10;;;;;;2064488;28;20113;-70
2021/01/03 04:37:18;;;;;;;101.88;52.72;;;2.10;97.10;;;;;;2064066;28;20406;-71
2021/01/03 04:38:19;;;;;;;97.25;50.30;;;2.10;97.00;;;;;;2064525;28;20038;-71
2021/01/03 04:39:21;;;;;;;100.13;51.17;;;2.10;97.10;;;;;;2064130;28;20118;-71
2021/01/03 04:40:29;;;;;;;98.57;51.47;;;2.10;97.10;;;;;;2056358;28;20034;-72
2021/01/03 04:41:36;;;;;;;98.15;51.25;;;2.10;97.10;;;;;;2064088;28;20085;-70
2021/01/03 04:42:37;;;;;;;97.22;50.67;;;2.10;97.10;;;;;;2064683;28;20026;-70
2021/01/03 04:43:38;;;;;;;99.72;51.85;;;2.10;97.10;;;;;;2064008;28;20026;-70
2021/01/03 04:44:43;;;;;;;100.45;52.13;;;2.10;97.00;;;;;;2063949;28;20040;-70
2021/01/03 04:45:45;;;;;;;99.30;52.20;;;2.10;97.10;;;;;;2063858;28;20030;-70
2021/01/03 04:46:47;;;;;;;99.90;50.70;;;2.10;97.10;;;;;;2063798;28;20018;-70
2021/01/03 04:47:56;;;;;;;107.68;53.47;;;2.10;97.10;;;;;;2064240;28;20034;-72
2021/01/03 04:49:01;;;;;;;100.40;52.65;;;2.10;97.10;;;;;;2064956;28;20492;-71
2021/01/03 04:50:53;;;;;;;99.95;52.22;;;2.10;97.10;;;;;;2064541;28;20022;-70
2021/01/03 04:52:12;;;;;;;;;;;2.10;97.10;;;;;;2064734;28;20126;-71
2021/01/03 04:53:25;;;;;;;99.93;50.13;;;2.10;97.10;;;;;;2064678;28;19914;-72
2021/01/03 04:54:25;;;;;;;99.40;50.45;;;2.10;97.10;;;;;;2064589;28;20042;-73
2021/01/03 04:55:29;;;;;;;99.25;51.03;;;2.10;97.10;;;;;;2064308;28;20023;-72
2021/01/03 04:56:42;;;;;;;99.78;51.25;;;2.10;97.10;;;;;;2064676;28;20508;-71
2021/01/03 04:58:07;;;;;;;102.20;51.72;;;2.10;97.10;;;;;;2073350;28;20040;-70
2021/01/03 04:59:17;;;;;;;98.65;50.47;;;2.10;97.10;;;;;;2072676;28;20446;-71
2021/01/03 05:00:18;;;;;;;97.25;50.70;;;2.10;97.10;;;;;;2066877;28;20034;-73
2021/01/03 05:01:34;;;;;;;99.43;51.22;;;2.10;97.20;;;;;;2064890;28;20058;-71
2021/01/03 05:03:08;;;;;;;97.03;49.47;;;2.10;97.20;;;;;;2064303;28;20130;-71
2021/01/03 05:04:20;;;;;;;104.28;51.60;;;2.10;97.10;;;;;;2064658;28;20594;-72
2021/01/03 05:05:35;;;;;;;99.50;50.72;;;2.10;97.20;;;;;;2064996;28;20026;-72
2021/01/03 05:06:36;;;;;;;100.78;51.40;;;2.10;97.10;;;;;;2064642;28;20048;-71
2021/01/03 05:07:44;;;;;;;99.80;52.20;;;2.10;97.20;;;;;;2064208;28;20062;-71
2021/01/03 05:08:48;;;;;;;97.88;51.25;;;2.10;97.20;;;;;;2064405;28;20052;-71
2021/01/03 05:09:52;;;;;;;103.75;52.72;;;2.10;97.20;;;;;;2064540;28;20081;-71
2021/01/03 05:10:53;;;;;;;102.18;52.00;;;2.10;97.20;;;;;;2064579;28;20037;-71
2021/01/03 05:12:15;;;;;;;105.13;52.92;;;2.10;97.20;;;;;;2064472;28;20079;-71
2021/01/03 05:13:44;;;;;;;102.82;52.10;;;2.00;97.10;;;;;;2064481;28;20031;-71
2021/01/03 05:15:08;;;;;;;108.53;53.78;;;2.00;97.20;;;;;;2064282;28;20126;-71
2021/01/03 05:16:15;;;;;;;107.57;52.95;;;2.00;97.70;;;;;;2064424;28;20109;-71
2021/01/03 05:17:16;;;;;;;106.30;52.90;;;2.00;97.30;;;;;;2063982;28;20022;-71
2021/01/03 05:18:17;;;;;;;101.68;53.03;;;2.00;97.30;;;;;;2064369;28;20038;-71
2021/01/03 05:19:17;;;;;;;112.43;55.08;;;2.00;97.30;;;;;;2063759;28;20117;-71
2021/01/03 05:20:18;;;;;;;105.43;54.50;;;2.00;97.40;;;;;;2063732;28;20038;-71
2021/01/03 05:21:19;;;;;;;105.57;53.83;;;2.00;97.50;;;;;;2064869;28;20030;-71
2021/01/03 05:22:46;;;;;;;104.93;52.55;;;2.00;97.50;;;;;;2064645;28;20027;-71
2021/01/03 05:23:59;;;;;;;103.63;52.72;;;2.00;97.70;;;;;;2061280;28;20038;-71
2021/01/03 05:25:02;;;;;;;105.20;52.33;;;2.00;97.40;;;;;;2064303;28;20037;-71
2021/01/03 05:26:05;;;;;;;105.20;52.30;;;2.00;97.40;;;;;;2063899;28;20033;-72
2021/01/03 05:27:16;;;;;;;99.15;51.67;;;2.00;97.40;;;;;;2064201;28;20033;-71